Wellington, Ohio
Current Conditions -  °F | °C
As of 5:53 PM on Sunday 21 Dec 2014 (Local Time) from KLPR Reporting Station
Haze Haze  
Wind Chill: 21°   Ceiling: Unl
Heat Index: 29°   Visibility: 6mi
Dew Point: 22°   Wind: 8mph
Humidity: 75%   Direction: 140°SE
Pressure: 30.25"   Gusts: NA
Location:  41.17°N, 82.22°W
Report Text: KLPR 212253Z AUTO 14007KT 6SM HZ CLR M02/M06 A3025 RMK AO2 SLP251 T10171056 TSNO
Loading
Personal Weather Stations






























Interactive Weather Map New forecast layout! Learn more

10-Day Weather Forecast

Advertisements
Track Severe Weather on mobile